DLH744 LHBP-EDDM
Flight info
| Callsign | DLH744 |
|---|---|
| Flight time | N/A |
| Altitude | 34000 |
| Route | GILEP DCT ZOLKU DCT ARSIN DCT SITNI DCT BAGSI DCT MATIG DCT AMADI Q113 NAPSA NAPSA1B |
| Aircraft | B744/H-SDE3FGHIM1M2RWXY/LB1 |
Departure
| Time | 2026-05-07 10:33 |
|---|---|
| Airport | Budapest Liszt Ferenc International Airport (LHBP) |
Arrival
| Time | N/A |
|---|---|
| Airport | Munich Airport (EDDM) |
| Time | Latitude | Longitude | Altitude | Speed | Heading |
|---|---|---|---|---|---|
| 2026-05-07 10:33 | 47.42410 | 19.09710 | 2754 ft | 185 kts | 219° |
| 2026-05-07 10:33 | 47.41396 | 19.08559 | 3006 ft | 184 kts | 219° |
| 2026-05-07 10:33 | 47.40385 | 19.07391 | 3199 ft | 184 kts | 219° |
| 2026-05-07 10:33 | 47.39378 | 19.06208 | 3370 ft | 186 kts | 220° |
| 2026-05-07 10:34 | 47.38370 | 19.05000 | 3520 ft | 190 kts | 220° |
| 2026-05-07 10:34 | 47.37328 | 19.03730 | 3657 ft | 195 kts | 222° |
| 2026-05-07 10:34 | 47.36292 | 19.02436 | 3768 ft | 201 kts | 222° |
| 2026-05-07 10:34 | 47.35219 | 19.01063 | 3890 ft | 206 kts | 223° |
| 2026-05-07 10:35 | 47.34331 | 18.99447 | 4039 ft | 210 kts | 243° |
| 2026-05-07 10:35 | 47.33947 | 18.97308 | 4116 ft | 218 kts | 268° |
| 2026-05-07 10:35 | 47.34171 | 18.95109 | 4293 ft | 219 kts | 285° |
| 2026-05-07 10:35 | 47.34633 | 18.92921 | 4474 ft | 220 kts | 286° |
| 2026-05-07 10:36 | 47.35061 | 18.90788 | 4672 ft | 219 kts | 285° |
| 2026-05-07 10:36 | 47.35360 | 18.89330 | 4757 ft | 221 kts | 285° |
| 2026-05-07 10:36 | 47.35986 | 18.86421 | 5071 ft | 211 kts | 302° |
| 2026-05-07 10:36 | 47.36716 | 18.84476 | 4884 ft | 224 kts | 290° |
| 2026-05-07 10:37 | 47.37300 | 18.82258 | 4784 ft | 239 kts | 289° |
| 2026-05-07 10:37 | 47.37803 | 18.79849 | 4655 ft | 253 kts | 282° |
| 2026-05-07 10:37 | 47.38172 | 18.77243 | 4554 ft | 265 kts | 281° |
| 2026-05-07 10:37 | 47.38647 | 18.74618 | 4666 ft | 267 kts | 287° |
| 2026-05-07 10:38 | 47.39326 | 18.72092 | 4853 ft | 266 kts | 294° |
| 2026-05-07 10:38 | 47.40249 | 18.69704 | 4970 ft | 269 kts | 303° |
| 2026-05-07 10:38 | 47.41435 | 18.67520 | 5135 ft | 270 kts | 312° |
| 2026-05-07 10:38 | 47.42841 | 18.65720 | 5266 ft | 272 kts | 323° |
| 2026-05-07 10:39 | 47.44502 | 18.64362 | 5410 ft | 274 kts | 336° |
| 2026-05-07 10:39 | 47.46327 | 18.63573 | 5549 ft | 276 kts | 349° |
| 2026-05-07 10:39 | 47.48257 | 18.63414 | 5727 ft | 277 kts | 2° |
| 2026-05-07 10:39 | 47.50142 | 18.63884 | 5870 ft | 278 kts | 15° |
| 2026-05-07 10:40 | 47.51922 | 18.64970 | 5963 ft | 281 kts | 28° |